Rudd, Iowa
Current Conditions -  °F | °C
As of 11:55 PM on Saturday 22 Nov 2014 (Local Time) from KCCY Reporting Station
Overcast Overcast  
Wind Chill: 52°   Ceiling: 800
Heat Index: 52°   Visibility: 8mi
Dew Point: 50°   Wind: 20mph
Humidity: 94%   Direction: 190°S
Pressure: 29.62"   Gusts: 28mph
Location:  43.13°N, 92.91°W
Report Text: KCCY 230555Z AUTO 19017G24KT 8SM OVC008 11/10 A2962 RMK AO2
Loading
Personal Weather Stations






























Interactive Weather Map New forecast layout! Learn more

10-Day Weather Forecast

Advertisements
Track Severe Weather on mobile